createdAt,value
2018-09-28T00:01:27.828Z,3.30
2018-09-28T00:03:56.720Z,3.50
2018-09-28T00:06:25.543Z,6.47
2018-09-28T00:08:54.397Z,2.40
2018-09-28T00:11:23.215Z,4.97
2018-09-28T00:13:52.033Z,10.73
2018-09-28T00:16:20.923Z,7.53
2018-09-28T00:18:49.738Z,8.47
2018-09-28T00:21:18.562Z,8.67
2018-09-28T00:23:47.455Z,8.03
2018-09-28T00:26:16.301Z,4.77
2018-09-28T00:28:45.130Z,5.07
2018-09-28T00:31:13.996Z,9.70
2018-09-28T00:33:42.818Z,6.10
2018-09-28T00:36:11.710Z,5.83
2018-09-28T00:38:40.564Z,4.40
2018-09-28T00:41:09.390Z,4.70
2018-09-28T00:43:38.291Z,20.40
2018-09-28T00:46:07.199Z,10.23
2018-09-28T00:48:36.043Z,10.97
2018-09-28T00:51:05.003Z,10.13
2018-09-28T00:53:33.831Z,4.00
2018-09-28T00:56:07.785Z,3.40
2018-09-28T00:58:36.639Z,3.87
2018-09-28T01:01:05.470Z,2.60
2018-09-28T01:03:34.306Z,3.27
2018-09-28T01:06:03.261Z,7.47
2018-09-28T01:08:32.135Z,10.20
2018-09-28T01:11:00.982Z,8.03
2018-09-28T01:13:29.822Z,2.10
2018-09-28T01:15:58.713Z,3.67
2018-09-28T01:18:27.542Z,7.53
2018-09-28T01:20:56.457Z,4.57
2018-09-28T01:23:25.312Z,3.17
2018-09-28T01:25:54.133Z,4.97
2018-09-28T01:28:22.973Z,5.83
2018-09-28T01:30:51.910Z,5.47
2018-09-28T01:33:20.738Z,3.83
2018-09-28T01:35:49.545Z,6.40
2018-09-28T01:38:18.386Z,5.70
2018-09-28T01:40:47.221Z,3.33
2018-09-28T01:43:16.059Z,6.47
2018-09-28T01:45:44.926Z,23.67
2018-09-28T01:48:13.766Z,28.80
2018-09-28T01:50:42.597Z,9.77
2018-09-28T01:53:11.485Z,11.67
2018-09-28T01:55:40.304Z,13.57
2018-09-28T01:58:09.117Z,11.70
2018-09-28T02:00:37.979Z,13.53
2018-09-28T02:03:06.874Z,27.53
2018-09-28T02:05:35.718Z,35.20
2018-09-28T02:08:04.586Z,11.27
2018-09-28T02:10:33.381Z,8.10
2018-09-28T02:13:02.202Z,4.87
2018-09-28T02:15:31.073Z,5.37
2018-09-28T02:17:59.910Z,4.67
2018-09-28T02:20:28.735Z,3.33
2018-09-28T02:22:57.557Z,3.43
2018-09-28T02:25:26.414Z,3.93
2018-09-28T02:27:55.246Z,4.17
2018-09-28T02:30:24.093Z,2.90
2018-09-28T02:32:52.939Z,7.00
2018-09-28T02:35:21.818Z,5.83
2018-09-28T02:37:50.916Z,6.27
2018-09-28T02:40:19.791Z,4.17
2018-09-28T02:42:48.646Z,3.97
2018-09-28T02:45:17.485Z,5.57
2018-09-28T02:47:46.368Z,5.63
2018-09-28T02:50:16.628Z,4.77
2018-09-28T02:52:45.448Z,5.07
2018-09-28T02:55:14.270Z,4.20
2018-09-28T02:57:43.174Z,4.80
2018-09-28T03:00:12.068Z,3.50
2018-09-28T03:02:40.902Z,3.07
2018-09-28T03:05:09.808Z,3.53
2018-09-28T03:07:38.655Z,3.27
2018-09-28T03:10:07.546Z,5.40
2018-09-28T03:12:36.411Z,13.20
2018-09-28T03:15:06.581Z,20.67
2018-09-28T03:17:35.479Z,14.70
2018-09-28T03:20:04.395Z,10.53
2018-09-28T03:22:33.258Z,4.70
2018-09-28T03:25:02.124Z,4.90
2018-09-28T03:27:31.514Z,3.13
2018-09-28T03:30:00.387Z,3.50
2018-09-28T03:32:30.669Z,4.90
2018-09-28T03:34:59.502Z,9.43
2018-09-28T03:37:28.350Z,7.03
2018-09-28T03:39:58.574Z,7.67
2018-09-28T03:42:27.428Z,2.50
2018-09-28T03:44:56.280Z,5.13
2018-09-28T03:47:25.374Z,3.43
2018-09-28T03:49:54.201Z,4.23
2018-09-28T03:52:23.026Z,8.73
2018-09-28T03:54:53.155Z,8.00
2018-09-28T03:57:21.988Z,6.43
2018-09-28T03:59:50.826Z,4.03
2018-09-28T04:02:21.274Z,5.43
2018-09-28T04:04:50.085Z,3.57
2018-09-28T04:07:18.893Z,4.03
2018-09-28T04:09:48.985Z,7.10
2018-09-28T04:12:17.782Z,5.13
2018-09-28T04:14:46.630Z,6.00
2018-09-28T04:17:16.703Z,7.57
2018-09-28T04:19:45.530Z,5.63
2018-09-28T04:22:14.349Z,5.30
2018-09-28T04:24:43.229Z,3.47
2018-09-28T04:27:12.067Z,4.00
2018-09-28T04:29:42.170Z,5.67
2018-09-28T04:32:11.059Z,5.40
2018-09-28T04:34:39.865Z,5.47
2018-09-28T04:37:08.690Z,7.87
2018-09-28T04:39:37.585Z,7.47
2018-09-28T04:42:06.425Z,5.47
2018-09-28T04:44:35.279Z,9.10
2018-09-28T04:47:04.284Z,6.00
2018-09-28T04:49:33.134Z,9.23
2018-09-28T04:52:01.973Z,9.90
2018-09-28T04:54:30.873Z,8.90
2018-09-28T04:56:59.689Z,10.03
2018-09-28T04:59:28.525Z,3.60
2018-09-28T05:01:57.494Z,3.93
2018-09-28T05:04:26.375Z,9.40
2018-09-28T05:06:55.191Z,17.37
2018-09-28T05:09:24.066Z,21.97
2018-09-28T05:11:52.882Z,5.13
2018-09-28T05:14:21.742Z,6.33
2018-09-28T05:16:50.637Z,5.67
2018-09-28T05:19:19.506Z,11.10
2018-09-28T05:21:48.320Z,6.47
2018-09-28T05:24:17.263Z,9.87
2018-09-28T05:26:46.082Z,11.00
2018-09-28T05:29:15.006Z,12.37
2018-09-28T05:31:43.948Z,17.97
2018-09-28T05:34:12.715Z,14.33
2018-09-28T05:36:41.540Z,9.03
2018-09-28T05:39:10.752Z,19.43
2018-09-28T05:41:39.563Z,26.83
2018-09-28T05:44:08.701Z,25.83
2018-09-28T05:46:37.649Z,36.03
2018-09-28T05:49:06.675Z,30.83
2018-09-28T05:51:35.603Z,15.53
2018-09-28T05:54:04.426Z,17.90
2018-09-28T05:56:33.228Z,10.43
2018-09-28T05:59:07.066Z,10.47
2018-09-28T06:01:41.008Z,7.47
2018-09-28T06:04:14.977Z,13.13
2018-09-28T06:06:43.891Z,10.07
2018-09-28T06:09:12.970Z,8.87
2018-09-28T06:11:41.801Z,10.80
2018-09-28T06:14:10.633Z,8.37
2018-09-28T06:16:39.553Z,8.57
2018-09-28T06:19:08.383Z,9.63
2018-09-28T06:21:37.207Z,12.27
2018-09-28T06:24:06.689Z,8.60
2018-09-28T06:26:35.594Z,13.47
2018-09-28T06:29:04.450Z,9.60
2018-09-28T06:31:33.297Z,12.87
2018-09-28T06:34:02.164Z,18.80
2018-09-28T06:36:31.019Z,14.47
2018-09-28T06:38:59.833Z,9.90
2018-09-28T06:41:28.732Z,10.37
2018-09-28T06:43:57.578Z,10.20
2018-09-28T06:46:26.508Z,13.07
2018-09-28T06:48:55.608Z,12.30
2018-09-28T06:51:24.658Z,15.50
2018-09-28T06:53:53.460Z,15.83
2018-09-28T06:56:23.724Z,18.73
2018-09-28T06:58:52.618Z,25.13
2018-09-28T07:01:21.430Z,17.17
2018-09-28T07:03:50.522Z,12.83
2018-09-28T07:06:19.401Z,18.90
2018-09-28T07:08:48.186Z,17.00
2018-09-28T07:11:18.442Z,14.27
2018-09-28T07:13:47.294Z,16.57
2018-09-28T07:16:16.268Z,16.90
2018-09-28T07:18:45.058Z,13.47
2018-09-28T07:21:13.896Z,11.43
2018-09-28T07:23:44.195Z,9.47
2018-09-28T07:26:13.043Z,13.20
2018-09-28T07:28:41.944Z,9.87
2018-09-28T07:31:10.840Z,8.47
2018-09-28T07:33:39.701Z,12.00
2018-09-28T07:36:08.886Z,13.40
2018-09-28T07:38:38.929Z,9.27
2018-09-28T07:41:07.850Z,10.20
2018-09-28T07:43:36.750Z,10.77
2018-09-28T07:46:07.108Z,4.63
2018-09-28T07:48:36.162Z,9.60
2018-09-28T07:51:05.001Z,6.23
2018-09-28T07:53:33.854Z,4.83
2018-09-28T07:56:02.781Z,6.57
2018-09-28T07:58:31.681Z,5.80
2018-09-28T08:01:00.574Z,6.40
2018-09-28T08:03:30.258Z,4.90
2018-09-28T08:06:00.380Z,4.40
2018-09-28T08:08:29.470Z,4.80
2018-09-28T08:10:58.310Z,6.10
2018-09-28T08:13:27.150Z,4.93
2018-09-28T08:15:56.050Z,4.50
2018-09-28T08:18:24.925Z,5.40
2018-09-28T08:20:53.835Z,7.53
2018-09-28T08:23:22.733Z,5.97
2018-09-28T08:25:51.593Z,9.10
2018-09-28T08:28:20.546Z,6.83
2018-09-28T08:30:49.442Z,6.63
2018-09-28T08:33:18.329Z,6.73
2018-09-28T08:35:48.426Z,5.33
2018-09-28T08:38:17.260Z,4.53
2018-09-28T08:40:46.241Z,5.30
2018-09-28T08:43:15.151Z,4.07
2018-09-28T08:45:43.970Z,3.40
2018-09-28T08:48:12.860Z,4.97
2018-09-28T08:50:41.726Z,4.70
2018-09-28T08:53:10.609Z,6.47
2018-09-28T08:55:39.552Z,5.80
2018-09-28T08:58:09.063Z,4.33
2018-09-28T09:00:37.975Z,4.13
2018-09-28T09:03:06.841Z,7.70
2018-09-28T09:05:35.754Z,4.83
2018-09-28T09:08:04.778Z,5.93
2018-09-28T09:10:33.597Z,3.47
2018-09-28T09:13:02.461Z,9.43
2018-09-28T09:15:31.448Z,5.13
2018-09-28T09:18:00.493Z,3.40
2018-09-28T09:20:29.332Z,4.90
2018-09-28T09:22:59.626Z,4.00
2018-09-28T09:25:28.502Z,5.75
2018-09-28T09:27:57.357Z,3.50
2018-09-28T09:30:26.266Z,4.47
2018-09-28T09:32:55.141Z,4.57
2018-09-28T09:35:23.986Z,4.60
2018-09-28T09:37:52.922Z,3.60
2018-09-28T09:40:21.866Z,3.87
2018-09-28T09:42:50.722Z,4.27
2018-09-28T09:45:19.606Z,4.07
2018-09-28T09:47:48.486Z,5.93
2018-09-28T09:50:17.451Z,3.60
2018-09-28T09:52:46.360Z,6.17
2018-09-28T09:55:15.465Z,5.47
2018-09-28T09:57:44.445Z,3.37
2018-09-28T10:00:17.544Z,2.80
2018-09-28T10:02:51.483Z,5.87
2018-09-28T10:05:20.470Z,3.03
2018-09-28T10:07:49.384Z,5.50
2018-09-28T10:10:18.301Z,3.37
2018-09-28T10:12:47.332Z,6.77
2018-09-28T10:15:16.357Z,4.20
2018-09-28T10:17:46.796Z,3.53
2018-09-28T10:20:15.749Z,3.13
2018-09-28T10:22:44.681Z,2.17
2018-09-28T10:25:13.673Z,6.03
2018-09-28T10:27:42.637Z,3.73
2018-09-28T10:30:11.550Z,3.70
2018-09-28T10:32:43.216Z,4.30
2018-09-28T10:35:12.153Z,2.97
2018-09-28T10:37:41.101Z,2.43
2018-09-28T10:40:10.359Z,3.67
2018-09-28T10:42:39.300Z,3.83
2018-09-28T10:45:08.259Z,2.23
2018-09-28T10:47:37.167Z,4.47
2018-09-28T10:50:06.063Z,2.97
2018-09-28T10:52:34.964Z,1.47
2018-09-28T10:55:03.826Z,3.50
2018-09-28T10:57:32.682Z,5.10
2018-09-28T11:00:01.543Z,4.60
2018-09-28T11:02:31.708Z,2.67
2018-09-28T11:05:00.591Z,2.90
2018-09-28T11:07:29.448Z,6.73
2018-09-28T11:09:58.325Z,5.93
2018-09-28T11:12:27.182Z,2.67
2018-09-28T11:14:56.150Z,3.37
2018-09-28T11:17:25.049Z,5.27
2018-09-28T11:19:53.927Z,4.20
2018-09-28T11:22:22.813Z,6.37
2018-09-28T11:24:51.852Z,3.43
2018-09-28T11:27:20.857Z,3.43
2018-09-28T11:29:49.737Z,2.37
2018-09-28T11:32:18.598Z,3.40
2018-09-28T11:34:47.593Z,2.83
2018-09-28T11:37:16.562Z,2.13
2018-09-28T11:39:45.462Z,3.20
2018-09-28T11:42:14.315Z,2.73
2018-09-28T11:44:44.523Z,2.97
2018-09-28T11:47:13.359Z,2.90
2018-09-28T11:49:42.199Z,1.93
2018-09-28T11:52:12.435Z,5.17
2018-09-28T11:54:41.307Z,5.10
2018-09-28T11:57:10.130Z,2.20
2018-09-28T11:59:40.522Z,5.53
2018-09-28T12:02:09.670Z,4.13
2018-09-28T12:04:38.521Z,2.47
2018-09-28T12:07:07.556Z,3.60
2018-09-28T12:09:36.449Z,4.23
2018-09-28T12:12:05.364Z,2.93
2018-09-28T12:14:34.283Z,3.60
2018-09-28T12:17:03.350Z,3.13
2018-09-28T12:19:32.192Z,2.67
2018-09-28T12:22:01.096Z,2.80
2018-09-28T12:24:29.981Z,3.07
2018-09-28T12:26:58.855Z,5.33
2018-09-28T12:29:27.789Z,3.20
2018-09-28T12:31:58.024Z,2.97
2018-09-28T12:34:26.948Z,4.30
2018-09-28T12:36:55.871Z,2.57
2018-09-28T12:39:25.033Z,5.63
2018-09-28T12:41:55.231Z,3.23
2018-09-28T12:44:24.297Z,2.20
2018-09-28T12:46:53.386Z,3.67
2018-09-28T12:49:22.365Z,2.30
2018-09-28T12:51:51.278Z,4.87
2018-09-28T12:54:20.253Z,6.37
2018-09-28T12:56:51.885Z,2.20
2018-09-28T12:59:20.825Z,2.37
2018-09-28T13:01:49.745Z,2.63
2018-09-28T13:04:19.485Z,1.57
2018-09-28T13:06:50.085Z,1.80
2018-09-28T13:09:19.039Z,2.80
2018-09-28T13:11:47.971Z,3.10
2018-09-28T13:14:16.948Z,2.40
2018-09-28T13:16:45.906Z,3.20
2018-09-28T13:19:14.948Z,1.93
2018-09-28T13:21:43.869Z,4.30
2018-09-28T13:24:12.794Z,2.40
2018-09-28T13:26:41.676Z,4.60
2018-09-28T13:29:10.576Z,3.30
2018-09-28T13:31:39.586Z,3.10
2018-09-28T13:34:08.450Z,3.63
2018-09-28T13:36:37.410Z,3.23
2018-09-28T13:39:08.354Z,2.80
2018-09-28T13:41:37.387Z,1.87
2018-09-28T13:44:06.462Z,2.80
2018-09-28T13:46:35.399Z,4.10
2018-09-28T13:49:04.256Z,3.77
2018-09-28T13:51:33.123Z,5.67
2018-09-28T13:54:02.023Z,3.57
2018-09-28T13:56:30.854Z,4.07
2018-09-28T13:59:00.017Z,4.37
2018-09-28T14:01:28.949Z,2.97
2018-09-28T14:03:57.770Z,3.23
2018-09-28T14:06:26.716Z,2.20
2018-09-28T14:08:55.566Z,4.13
2018-09-28T14:11:24.610Z,4.60
2018-09-28T14:13:53.551Z,3.93
2018-09-28T14:16:22.465Z,2.67
2018-09-28T14:18:51.524Z,2.87
2018-09-28T14:21:20.315Z,5.53
2018-09-28T14:23:49.187Z,2.20
2018-09-28T14:26:18.107Z,3.40
2018-09-28T14:28:47.090Z,2.87
2018-09-28T14:31:15.960Z,4.00
2018-09-28T14:33:44.825Z,5.30
2018-09-28T14:36:13.689Z,3.10
2018-09-28T14:38:42.532Z,4.03
2018-09-28T14:41:11.375Z,4.67
2018-09-28T14:43:41.590Z,6.27
2018-09-28T14:46:10.736Z,7.80
2018-09-28T14:48:39.624Z,4.57
2018-09-28T14:51:08.514Z,2.43
2018-09-28T14:53:37.581Z,9.30
2018-09-28T14:56:06.503Z,3.60
2018-09-28T14:58:36.787Z,3.10
2018-09-28T15:01:07.218Z,5.47
2018-09-28T15:03:36.030Z,4.90
2018-09-28T15:06:04.903Z,3.23
2018-09-28T15:08:33.730Z,4.77
2018-09-28T15:11:02.714Z,3.77
2018-09-28T15:13:31.908Z,3.50
2018-09-28T15:16:00.751Z,5.07
2018-09-28T15:18:29.605Z,3.63
2018-09-28T15:20:58.486Z,2.80
2018-09-28T15:23:27.368Z,5.73
2018-09-28T15:25:56.286Z,3.93
2018-09-28T15:28:25.159Z,4.07
2018-09-28T15:30:53.961Z,4.60
2018-09-28T15:33:22.774Z,4.93
2018-09-28T15:35:52.997Z,3.40
2018-09-28T15:38:21.888Z,7.23
2018-09-28T15:40:50.766Z,4.83
2018-09-28T15:43:19.635Z,3.03
2018-09-28T15:45:48.834Z,2.00
2018-09-28T15:48:17.666Z,2.50
2018-09-28T15:50:46.513Z,3.80
2018-09-28T15:53:15.322Z,3.20
2018-09-28T15:55:44.177Z,5.67
2018-09-28T15:58:13.062Z,5.83
2018-09-28T16:00:41.895Z,4.80
2018-09-28T16:03:10.715Z,9.57
2018-09-28T16:05:39.577Z,6.67
2018-09-28T16:08:08.399Z,4.13
2018-09-28T16:10:37.218Z,3.70
2018-09-28T16:13:06.110Z,7.87
2018-09-28T16:15:34.934Z,3.97
2018-09-28T16:18:03.758Z,4.87
2018-09-28T16:20:32.608Z,3.33
2018-09-28T16:23:02.728Z,3.20
2018-09-28T16:25:31.519Z,4.40
2018-09-28T16:28:01.791Z,8.03
2018-09-28T16:30:30.605Z,5.63
2018-09-28T16:32:59.413Z,4.80
2018-09-28T16:35:29.702Z,3.97
2018-09-28T16:37:58.634Z,5.37
2018-09-28T16:40:27.510Z,2.60
2018-09-28T16:42:57.570Z,5.60
2018-09-28T16:45:26.567Z,3.23
2018-09-28T16:47:56.856Z,2.03
2018-09-28T16:50:25.747Z,6.13
2018-09-28T16:52:54.631Z,6.00
2018-09-28T16:55:23.466Z,3.70
2018-09-28T16:57:52.403Z,4.90
2018-09-28T17:00:21.195Z,6.67
2018-09-28T17:02:50.122Z,4.90
2018-09-28T17:05:18.967Z,7.77
2018-09-28T17:07:49.087Z,6.33
2018-09-28T17:10:17.910Z,3.67
2018-09-28T17:12:46.763Z,5.27
2018-09-28T17:15:15.591Z,5.83
2018-09-28T17:17:44.551Z,4.80
2018-09-28T17:20:13.420Z,5.03
2018-09-28T17:22:43.501Z,8.80
2018-09-28T17:25:12.511Z,7.03
2018-09-28T17:27:41.374Z,11.33
2018-09-28T17:30:11.460Z,9.93
2018-09-28T17:32:40.368Z,13.67
2018-09-28T17:35:09.271Z,12.30
2018-09-28T17:37:38.144Z,9.10
2018-09-28T17:40:08.375Z,4.23
2018-09-28T17:42:37.223Z,7.33
2018-09-28T17:45:06.330Z,10.57
2018-09-28T17:47:35.187Z,4.80
2018-09-28T17:50:04.063Z,3.33
2018-09-28T17:52:32.884Z,2.43
2018-09-28T17:55:01.703Z,4.23
2018-09-28T17:57:30.579Z,2.13
2018-09-28T17:59:59.475Z,2.30
2018-09-28T18:02:28.320Z,5.80
2018-09-28T18:04:57.212Z,3.10
2018-09-28T18:07:26.056Z,10.20
2018-09-28T18:09:55.106Z,3.42
2018-09-28T18:12:24.028Z,9.40
2018-09-28T18:14:52.904Z,2.93
2018-09-28T18:17:21.837Z,3.20
2018-09-28T18:19:50.767Z,5.73
2018-09-28T18:22:19.676Z,4.93
2018-09-28T18:24:48.593Z,5.47
2018-09-28T18:27:17.936Z,7.60
2018-09-28T18:29:46.748Z,5.47
2018-09-28T18:32:15.570Z,7.27
2018-09-28T18:34:44.428Z,8.20
2018-09-28T18:37:13.303Z,3.43
2018-09-28T18:39:42.142Z,6.80
2018-09-28T18:42:11.031Z,5.40
2018-09-28T18:44:39.880Z,3.80
2018-09-28T18:47:08.902Z,6.40
2018-09-28T18:49:37.851Z,3.20
2018-09-28T18:52:06.734Z,2.60
2018-09-28T18:54:35.566Z,3.77
2018-09-28T18:57:04.467Z,4.40
2018-09-28T18:59:33.315Z,2.57
2018-09-28T19:02:02.166Z,4.67
2018-09-28T19:04:31.068Z,3.30
2018-09-28T19:07:01.151Z,5.40
2018-09-28T19:09:30.032Z,3.27
2018-09-28T19:11:58.952Z,4.97
2018-09-28T19:14:27.882Z,3.63
2018-09-28T19:16:56.734Z,3.27
2018-09-28T19:19:25.683Z,3.30
2018-09-28T19:21:54.523Z,5.53
2018-09-28T19:24:23.415Z,3.33
2018-09-28T19:26:52.267Z,3.43
2018-09-28T19:29:21.201Z,3.97
2018-09-28T19:31:50.090Z,6.37
2018-09-28T19:34:20.445Z,5.73
2018-09-28T19:36:49.272Z,5.33
2018-09-28T19:39:18.135Z,4.77
2018-09-28T19:41:46.991Z,5.27
2018-09-28T19:44:16.667Z,5.20
2018-09-28T19:46:45.522Z,5.43
2018-09-28T19:49:14.464Z,4.63
2018-09-28T19:51:43.272Z,6.00
2018-09-28T19:54:12.121Z,5.00
2018-09-28T19:56:40.995Z,4.30
2018-09-28T19:59:09.819Z,4.90
2018-09-28T20:01:40.106Z,3.93
2018-09-28T20:04:08.973Z,4.47
2018-09-28T20:06:37.955Z,6.23
2018-09-28T20:09:09.340Z,3.33
2018-09-28T20:11:38.164Z,4.40
2018-09-28T20:14:08.259Z,5.90
2018-09-28T20:16:37.105Z,4.73
2018-09-28T20:19:06.007Z,3.27
2018-09-28T20:21:34.884Z,4.20
2018-09-28T20:24:03.771Z,2.97
2018-09-28T20:26:32.663Z,3.90
2018-09-28T20:29:01.534Z,2.83
2018-09-28T20:31:30.390Z,4.60
2018-09-28T20:33:59.213Z,3.00
2018-09-28T20:36:29.303Z,3.13
2018-09-28T20:38:58.117Z,4.80
2018-09-28T20:41:26.984Z,3.67
2018-09-28T20:43:56.151Z,3.37
2018-09-28T20:46:25.235Z,3.70
2018-09-28T20:48:54.127Z,2.50
2018-09-28T20:51:23.103Z,4.03
2018-09-28T20:53:51.912Z,3.30
2018-09-28T20:56:20.773Z,3.93
2018-09-28T20:58:49.591Z,2.20
2018-09-28T21:01:18.435Z,3.13
2018-09-28T21:03:47.319Z,3.47
2018-09-28T21:06:16.134Z,10.63
2018-09-28T21:08:44.972Z,30.17
2018-09-28T21:11:13.867Z,15.20
2018-09-28T21:13:42.727Z,17.37
2018-09-28T21:16:11.570Z,44.17
2018-09-28T21:18:40.443Z,26.93
2018-09-28T21:21:09.322Z,22.93
2018-09-28T21:23:38.162Z,11.53
2018-09-28T21:26:07.027Z,19.30
2018-09-28T21:28:35.924Z,34.93
2018-09-28T21:31:04.751Z,12.63
2018-09-28T21:33:33.578Z,19.43
2018-09-28T21:36:02.483Z,13.17
2018-09-28T21:38:31.338Z,4.80
2018-09-28T21:41:00.190Z,5.10
2018-09-28T21:43:29.151Z,3.67
2018-09-28T21:45:58.154Z,6.90
2018-09-28T21:48:27.075Z,2.93
2018-09-28T21:50:56.044Z,3.60
2018-09-28T21:53:24.871Z,2.60
2018-09-28T21:55:53.730Z,2.77
2018-09-28T21:58:22.597Z,2.30
2018-09-28T22:00:55.406Z,4.03
2018-09-28T22:03:24.308Z,2.80
2018-09-28T22:05:53.544Z,4.33
2018-09-28T22:08:22.379Z,3.10
2018-09-28T22:10:51.214Z,3.03
2018-09-28T22:13:20.090Z,2.20
2018-09-28T22:15:48.926Z,4.30
2018-09-28T22:18:17.742Z,2.27
2018-09-28T22:20:46.602Z,3.60
2018-09-28T22:23:15.537Z,1.93
2018-09-28T22:25:44.395Z,2.43
2018-09-28T22:28:13.191Z,1.40
2018-09-28T22:30:42.147Z,1.50
2018-09-28T22:33:11.008Z,2.90
2018-09-28T22:35:39.846Z,2.03
2018-09-28T22:38:08.758Z,1.63
2018-09-28T22:40:37.742Z,2.73
2018-09-28T22:43:06.846Z,3.23
2018-09-28T22:45:35.671Z,2.13
2018-09-28T22:48:04.517Z,3.03
2018-09-28T22:50:33.422Z,3.00
2018-09-28T22:53:02.240Z,4.07
2018-09-28T22:55:31.110Z,4.50
2018-09-28T22:58:00.055Z,4.53
2018-09-28T23:00:29.015Z,4.30
2018-09-28T23:02:57.871Z,4.30
2018-09-28T23:05:26.731Z,1.73
2018-09-28T23:07:55.543Z,2.20
2018-09-28T23:10:24.363Z,3.53
2018-09-28T23:12:53.227Z,2.37
2018-09-28T23:15:22.092Z,6.17
2018-09-28T23:17:50.949Z,4.43
2018-09-28T23:20:19.776Z,8.73
2018-09-28T23:22:50.020Z,5.33
2018-09-28T23:25:19.100Z,7.50
2018-09-28T23:27:48.186Z,4.27
2018-09-28T23:30:17.038Z,7.70
2018-09-28T23:32:45.862Z,6.93
2018-09-28T23:35:14.719Z,5.33
2018-09-28T23:37:43.564Z,5.50
2018-09-28T23:40:12.585Z,5.13
2018-09-28T23:42:41.470Z,3.90
2018-09-28T23:45:10.340Z,3.20
2018-09-28T23:47:39.264Z,6.03
2018-09-28T23:50:08.484Z,3.80
2018-09-28T23:52:38.552Z,6.30
2018-09-28T23:55:07.509Z,10.37
2018-09-28T23:57:36.392Z,5.90
